sensor_id;sensor_type;location;lat;lon;timestamp;pressure;altitude;pressure_sealevel;temperature;humidity
59757;BME280;45631;51.962;5.974;2022-08-16T00:00:11;100462.06;;;21.58;85.65
59757;BME280;45631;51.962;5.974;2022-08-16T00:02:47;100475.28;;;21.51;86.99
59757;BME280;45631;51.962;5.974;2022-08-16T00:05:19;100474.00;;;21.47;87.09
59757;BME280;45631;51.962;5.974;2022-08-16T00:07:48;100474.91;;;21.39;87.46
59757;BME280;45631;51.962;5.974;2022-08-16T00:10:25;100482.66;;;21.34;87.72
59757;BME280;45631;51.962;5.974;2022-08-16T00:12:55;100478.84;;;21.28;88.44
59757;BME280;45631;51.962;5.974;2022-08-16T00:15:27;100481.53;;;21.28;88.46
59757;BME280;45631;51.962;5.974;2022-08-16T00:18:17;100472.31;;;21.31;88.10
59757;BME280;45631;51.962;5.974;2022-08-16T00:20:57;100485.00;;;21.29;88.74
59757;BME280;45631;51.962;5.974;2022-08-16T00:23:25;100479.38;;;21.24;88.55
59757;BME280;45631;51.962;5.974;2022-08-16T00:26:06;100479.25;;;21.17;88.92
59757;BME280;45631;51.962;5.974;2022-08-16T00:28:54;100476.13;;;21.14;89.16
59757;BME280;45631;51.962;5.974;2022-08-16T00:31:25;100478.72;;;20.99;88.89
59757;BME280;45631;51.962;5.974;2022-08-16T00:34:13;100479.09;;;20.96;89.58
59757;BME280;45631;51.962;5.974;2022-08-16T00:36:45;100480.59;;;20.90;89.44
59757;BME280;45631;51.962;5.974;2022-08-16T00:39:21;100480.81;;;20.80;90.07
59757;BME280;45631;51.962;5.974;2022-08-16T00:41:50;100479.00;;;20.81;90.08
59757;BME280;45631;51.962;5.974;2022-08-16T00:44:20;100477.69;;;20.76;90.92
59757;BME280;45631;51.962;5.974;2022-08-16T00:47:02;100473.84;;;20.71;91.73
59757;BME280;45631;51.962;5.974;2022-08-16T00:49:33;100473.72;;;20.72;91.39
59757;BME280;45631;51.962;5.974;2022-08-16T00:52:11;100475.34;;;20.73;91.95
59757;BME280;45631;51.962;5.974;2022-08-16T00:54:56;100470.69;;;20.67;92.08
59757;BME280;45631;51.962;5.974;2022-08-16T00:57:25;100473.06;;;20.62;92.68
59757;BME280;45631;51.962;5.974;2022-08-16T01:00:17;100471.75;;;20.58;92.20
59757;BME280;45631;51.962;5.974;2022-08-16T01:02:50;100476.72;;;20.61;92.13
59757;BME280;45631;51.962;5.974;2022-08-16T01:05:18;100482.41;;;20.58;91.42
59757;BME280;45631;51.962;5.974;2022-08-16T01:07:52;100477.63;;;20.53;91.78
59757;BME280;45631;51.962;5.974;2022-08-16T01:10:22;100478.47;;;20.46;92.82
59757;BME280;45631;51.962;5.974;2022-08-16T01:13:03;100478.47;;;20.46;92.17
59757;BME280;45631;51.962;5.974;2022-08-16T01:15:33;100478.84;;;20.42;92.39
59757;BME280;45631;51.962;5.974;2022-08-16T01:18:11;100479.19;;;20.31;93.42
59757;BME280;45631;51.962;5.974;2022-08-16T01:21:18;100472.84;;;20.32;93.75
59757;BME280;45631;51.962;5.974;2022-08-16T01:23:59;100467.38;;;20.25;93.88
59757;BME280;45631;51.962;5.974;2022-08-16T01:26:51;100467.19;;;20.27;94.01
59757;BME280;45631;51.962;5.974;2022-08-16T01:29:33;100476.22;;;20.18;94.46
59757;BME280;45631;51.962;5.974;2022-08-16T01:32:23;100474.75;;;20.15;94.84
59757;BME280;45631;51.962;5.974;2022-08-16T01:35:00;100472.91;;;20.16;94.86
59757;BME280;45631;51.962;5.974;2022-08-16T01:37:29;100472.41;;;20.12;95.23
59757;BME280;45631;51.962;5.974;2022-08-16T01:40:06;100476.59;;;20.06;95.11
59757;BME280;45631;51.962;5.974;2022-08-16T01:42:36;100480.28;;;19.97;95.72
59757;BME280;45631;51.962;5.974;2022-08-16T01:45:14;100481.00;;;19.83;96.50
59757;BME280;45631;51.962;5.974;2022-08-16T01:47:47;100471.97;;;19.75;97.17
59757;BME280;45631;51.962;5.974;2022-08-16T01:50:19;100465.28;;;19.71;97.03
59757;BME280;45631;51.962;5.974;2022-08-16T01:53:09;100470.63;;;19.71;97.60
59757;BME280;45631;51.962;5.974;2022-08-16T01:55:39;100465.47;;;19.70;97.77
59757;BME280;45631;51.962;5.974;2022-08-16T01:58:21;100464.31;;;19.72;97.61
59757;BME280;45631;51.962;5.974;2022-08-16T02:00:50;100473.00;;;19.66;97.79
59757;BME280;45631;51.962;5.974;2022-08-16T02:03:20;100473.16;;;19.73;97.68
59757;BME280;45631;51.962;5.974;2022-08-16T02:05:50;100474.31;;;19.70;97.79
59757;BME280;45631;51.962;5.974;2022-08-16T02:08:18;100470.81;;;19.62;97.67
59757;BME280;45631;51.962;5.974;2022-08-16T02:11:03;100471.31;;;19.65;97.61
59757;BME280;45631;51.962;5.974;2022-08-16T02:13:33;100481.00;;;19.58;97.72
59757;BME280;45631;51.962;5.974;2022-08-16T02:16:08;100477.16;;;19.52;98.33
59757;BME280;45631;51.962;5.974;2022-08-16T02:18:45;100476.66;;;19.49;98.26
59757;BME280;45631;51.962;5.974;2022-08-16T02:21:14;100473.84;;;19.42;99.08
59757;BME280;45631;51.962;5.974;2022-08-16T02:23:42;100472.00;;;19.42;99.08
59757;BME280;45631;51.962;5.974;2022-08-16T02:26:13;100475.50;;;19.35;99.91
59757;BME280;45631;51.962;5.974;2022-08-16T02:28:44;100471.34;;;19.40;99.45
59757;BME280;45631;51.962;5.974;2022-08-16T02:31:18;100469.66;;;19.48;99.67
59757;BME280;45631;51.962;5.974;2022-08-16T02:34:08;100466.00;;;19.40;99.36
59757;BME280;45631;51.962;5.974;2022-08-16T02:36:38;100467.34;;;19.36;99.45
59757;BME280;45631;51.962;5.974;2022-08-16T02:39:16;100460.69;;;19.32;99.68
59757;BME280;45631;51.962;5.974;2022-08-16T02:41:50;100465.66;;;19.35;99.63
59757;BME280;45631;51.962;5.974;2022-08-16T02:44:19;100466.66;;;19.26;100.00
59757;BME280;45631;51.962;5.974;2022-08-16T02:46:52;100455.66;;;19.29;100.00
59757;BME280;45631;51.962;5.974;2022-08-16T02:49:22;100456.50;;;19.30;100.00
59757;BME280;45631;51.962;5.974;2022-08-16T02:52:11;100465.50;;;19.20;100.00
59757;BME280;45631;51.962;5.974;2022-08-16T02:54:50;100462.31;;;19.17;100.00
59757;BME280;45631;51.962;5.974;2022-08-16T02:57:22;100459.00;;;19.15;100.00
59757;BME280;45631;51.962;5.974;2022-08-16T02:59:51;100463.16;;;19.17;100.00
59757;BME280;45631;51.962;5.974;2022-08-16T03:02:19;100459.16;;;19.21;100.00
59757;BME280;45631;51.962;5.974;2022-08-16T03:04:57;100458.00;;;19.16;100.00
59757;BME280;45631;51.962;5.974;2022-08-16T03:07:27;100464.97;;;19.17;100.00
59757;BME280;45631;51.962;5.974;2022-08-16T03:10:03;100460.00;;;19.14;100.00
59757;BME280;45631;51.962;5.974;2022-08-16T03:12:34;100457.50;;;19.12;100.00
59757;BME280;45631;51.962;5.974;2022-08-16T03:15:21;100461.16;;;19.11;100.00
59757;BME280;45631;51.962;5.974;2022-08-16T03:17:50;100455.31;;;18.99;100.00
59757;BME280;45631;51.962;5.974;2022-08-16T03:20:19;100458.00;;;19.07;100.00
59757;BME280;45631;51.962;5.974;2022-08-16T03:22:58;100460.31;;;19.02;100.00
59757;BME280;45631;51.962;5.974;2022-08-16T03:25:28;100453.13;;;18.95;100.00
59757;BME280;45631;51.962;5.974;2022-08-16T03:28:11;100453.47;;;18.91;100.00
59757;BME280;45631;51.962;5.974;2022-08-16T03:30:43;100446.94;;;18.78;100.00
59757;BME280;45631;51.962;5.974;2022-08-16T03:33:13;100455.75;;;18.78;100.00
59757;BME280;45631;51.962;5.974;2022-08-16T03:35:41;100457.22;;;18.72;100.00
59757;BME280;45631;51.962;5.974;2022-08-16T03:38:13;100460.56;;;18.83;100.00
59757;BME280;45631;51.962;5.974;2022-08-16T03:41:01;100459.41;;;18.85;100.00
59757;BME280;45631;51.962;5.974;2022-08-16T03:43:41;100459.91;;;18.81;100.00
59757;BME280;45631;51.962;5.974;2022-08-16T03:46:18;100460.06;;;18.79;100.00
59757;BME280;45631;51.962;5.974;2022-08-16T03:49:08;100462.53;;;18.64;100.00
59757;BME280;45631;51.962;5.974;2022-08-16T03:51:39;100454.22;;;18.67;100.00
59757;BME280;45631;51.962;5.974;2022-08-16T03:54:07;100458.22;;;18.71;100.00
59757;BME280;45631;51.962;5.974;2022-08-16T03:56:38;100450.22;;;18.63;100.00
59757;BME280;45631;51.962;5.974;2022-08-16T03:59:25;100460.03;;;18.63;100.00
59757;BME280;45631;51.962;5.974;2022-08-16T04:01:55;100456.03;;;18.58;100.00
59757;BME280;45631;51.962;5.974;2022-08-16T04:04:24;100470.84;;;18.53;100.00
59757;BME280;45631;51.962;5.974;2022-08-16T04:06:59;100469.78;;;18.46;100.00
59757;BME280;45631;51.962;5.974;2022-08-16T04:09:29;100469.59;;;18.39;100.00
59757;BME280;45631;51.962;5.974;2022-08-16T04:12:04;100472.09;;;18.40;100.00
59757;BME280;45631;51.962;5.974;2022-08-16T04:14:53;100483.94;;;18.46;100.00
59757;BME280;45631;51.962;5.974;2022-08-16T04:17:23;100482.72;;;18.40;100.00
59757;BME280;45631;51.962;5.974;2022-08-16T04:19:52;100487.41;;;18.38;100.00
59757;BME280;45631;51.962;5.974;2022-08-16T04:22:25;100497.84;;;18.32;100.00
59757;BME280;45631;51.962;5.974;2022-08-16T04:24:54;100486.88;;;18.35;100.00
59757;BME280;45631;51.962;5.974;2022-08-16T04:27:25;100494.66;;;18.28;100.00
59757;BME280;45631;51.962;5.974;2022-08-16T04:29:58;100500.63;;;18.22;100.00
59757;BME280;45631;51.962;5.974;2022-08-16T04:32:29;100511.59;;;18.19;100.00
59757;BME280;45631;51.962;5.974;2022-08-16T04:34:58;100509.03;;;18.09;100.00
59757;BME280;45631;51.962;5.974;2022-08-16T04:37:34;100513.03;;;18.13;100.00
59757;BME280;45631;51.962;5.974;2022-08-16T04:40:09;100514.72;;;18.14;100.00
59757;BME280;45631;51.962;5.974;2022-08-16T04:42:51;100520.03;;;18.14;100.00
59757;BME280;45631;51.962;5.974;2022-08-16T04:45:22;100522.38;;;18.17;100.00
59757;BME280;45631;51.962;5.974;2022-08-16T04:48:03;100524.94;;;18.27;100.00
59757;BME280;45631;51.962;5.974;2022-08-16T04:50:31;100535.06;;;18.23;100.00
59757;BME280;45631;51.962;5.974;2022-08-16T04:53:00;100534.75;;;18.27;100.00
59757;BME280;45631;51.962;5.974;2022-08-16T04:55:30;100536.38;;;18.19;100.00
59757;BME280;45631;51.962;5.974;2022-08-16T04:58:05;100533.91;;;18.26;100.00
59757;BME280;45631;51.962;5.974;2022-08-16T05:00:54;100533.91;;;18.26;100.00
59757;BME280;45631;51.962;5.974;2022-08-16T05:03:23;100532.41;;;18.23;100.00
59757;BME280;45631;51.962;5.974;2022-08-16T05:05:52;100534.59;;;18.28;100.00
59757;BME280;45631;51.962;5.974;2022-08-16T05:08:28;100544.72;;;18.24;100.00
59757;BME280;45631;51.962;5.974;2022-08-16T05:10:58;100549.56;;;18.29;100.00
59757;BME280;45631;51.962;5.974;2022-08-16T05:13:32;100542.56;;;18.28;100.00
59757;BME280;45631;51.962;5.974;2022-08-16T05:16:10;100543.91;;;18.32;100.00
59757;BME280;45631;51.962;5.974;2022-08-16T05:18:47;100533.63;;;18.37;100.00
59757;BME280;45631;51.962;5.974;2022-08-16T05:21:16;100541.94;;;18.34;100.00
59757;BME280;45631;51.962;5.974;2022-08-16T05:23:48;100544.28;;;18.37;100.00
59757;BME280;45631;51.962;5.974;2022-08-16T05:26:22;100548.66;;;18.47;100.00
59757;BME280;45631;51.962;5.974;2022-08-16T05:28:54;100548.31;;;18.41;100.00
59757;BME280;45631;51.962;5.974;2022-08-16T05:31:24;100541.31;;;18.40;100.00
59757;BME280;45631;51.962;5.974;2022-08-16T05:33:57;100553.66;;;18.50;100.00
59757;BME280;45631;51.962;5.974;2022-08-16T05:36:26;100554.34;;;18.52;100.00
59757;BME280;45631;51.962;5.974;2022-08-16T05:39:04;100554.34;;;18.52;100.00
59757;BME280;45631;51.962;5.974;2022-08-16T05:41:34;100558.88;;;18.59;100.00
59757;BME280;45631;51.962;5.974;2022-08-16T05:44:12;100546.44;;;18.68;100.00
59757;BME280;45631;51.962;5.974;2022-08-16T05:46:55;100541.78;;;18.70;100.00
59757;BME280;45631;51.962;5.974;2022-08-16T05:49:28;100543.81;;;18.77;100.00
59757;BME280;45631;51.962;5.974;2022-08-16T05:52:05;100545.97;;;18.81;100.00
59757;BME280;45631;51.962;5.974;2022-08-16T05:54:43;100542.53;;;18.89;100.00
59757;BME280;45631;51.962;5.974;2022-08-16T05:57:26;100546.22;;;18.96;100.00
59757;BME280;45631;51.962;5.974;2022-08-16T06:00:04;100552.59;;;19.03;100.00
59757;BME280;45631;51.962;5.974;2022-08-16T06:02:37;100548.59;;;19.07;100.00
59757;BME280;45631;51.962;5.974;2022-08-16T06:05:06;100545.97;;;19.16;100.00
59757;BME280;45631;51.962;5.974;2022-08-16T06:07:36;100547.63;;;19.25;100.00
59757;BME280;45631;51.962;5.974;2022-08-16T06:10:06;100545.47;;;19.37;100.00
59757;BME280;45631;51.962;5.974;2022-08-16T06:12:35;100554.47;;;19.44;100.00
59757;BME280;45631;51.962;5.974;2022-08-16T06:15:06;100561.31;;;19.55;100.00
59757;BME280;45631;51.962;5.974;2022-08-16T06:17:37;100565.66;;;19.64;100.00
59757;BME280;45631;51.962;5.974;2022-08-16T06:20:12;100555.50;;;19.76;100.00
59757;BME280;45631;51.962;5.974;2022-08-16T06:22:51;100561.38;;;19.88;100.00
59757;BME280;45631;51.962;5.974;2022-08-16T06:25:29;100569.69;;;20.01;100.00
59757;BME280;45631;51.962;5.974;2022-08-16T06:28:05;100573.84;;;20.12;100.00
59757;BME280;45631;51.962;5.974;2022-08-16T06:30:36;100563.81;;;20.22;100.00
59757;BME280;45631;51.962;5.974;2022-08-16T06:33:11;100569.78;;;20.33;100.00
59757;BME280;45631;51.962;5.974;2022-08-16T06:35:45;100577.28;;;20.46;100.00
59757;BME280;45631;51.962;5.974;2022-08-16T06:38:13;100567.91;;;20.58;100.00
59757;BME280;45631;51.962;5.974;2022-08-16T06:41:02;100568.56;;;20.68;100.00
59757;BME280;45631;51.962;5.974;2022-08-16T06:43:32;100565.97;;;20.83;100.00
59757;BME280;45631;51.962;5.974;2022-08-16T06:46:03;100575.31;;;20.96;100.00
59757;BME280;45631;51.962;5.974;2022-08-16T06:48:40;100571.22;;;21.08;100.00
59757;BME280;45631;51.962;5.974;2022-08-16T06:51:10;100573.31;;;21.21;99.36
59757;BME280;45631;51.962;5.974;2022-08-16T06:53:40;100568.84;;;21.36;97.65
59757;BME280;45631;51.962;5.974;2022-08-16T06:56:08;100566.44;;;21.50;95.96
59757;BME280;45631;51.962;5.974;2022-08-16T06:58:49;100570.50;;;21.69;93.30
59757;BME280;45631;51.962;5.974;2022-08-16T07:01:18;100573.88;;;21.86;92.67
59757;BME280;45631;51.962;5.974;2022-08-16T07:04:08;100570.41;;;22.00;89.58
59757;BME280;45631;51.962;5.974;2022-08-16T07:06:39;100572.72;;;22.18;89.28
59757;BME280;45631;51.962;5.974;2022-08-16T07:09:10;100575.59;;;22.32;87.46
59757;BME280;45631;51.962;5.974;2022-08-16T07:11:42;100583.34;;;22.50;86.86
59757;BME280;45631;51.962;5.974;2022-08-16T07:14:17;100576.94;;;22.66;85.93
59757;BME280;45631;51.962;5.974;2022-08-16T07:16:54;100583.28;;;22.79;83.90
59757;BME280;45631;51.962;5.974;2022-08-16T07:19:28;100589.47;;;22.95;82.77
59757;BME280;45631;51.962;5.974;2022-08-16T07:22:18;100589.56;;;23.17;81.33
59757;BME280;45631;51.962;5.974;2022-08-16T07:25:08;100587.00;;;23.30;79.02
59757;BME280;45631;51.962;5.974;2022-08-16T07:27:38;100592.31;;;23.45;78.88
59757;BME280;45631;51.962;5.974;2022-08-16T07:30:11;100589.56;;;23.60;78.09
59757;BME280;45631;51.962;5.974;2022-08-16T07:33:00;100589.97;;;23.78;76.67
59757;BME280;45631;51.962;5.974;2022-08-16T07:35:31;100600.25;;;23.96;75.25
59757;BME280;45631;51.962;5.974;2022-08-16T07:38:00;100601.19;;;24.10;73.52
59757;BME280;45631;51.962;5.974;2022-08-16T07:40:29;100602.53;;;24.28;73.90
59757;BME280;45631;51.962;5.974;2022-08-16T07:43:17;100599.78;;;24.50;72.77
59757;BME280;45631;51.962;5.974;2022-08-16T07:45:46;100611.72;;;24.69;71.63
59757;BME280;45631;51.962;5.974;2022-08-16T07:48:18;100613.41;;;24.76;69.70
59757;BME280;45631;51.962;5.974;2022-08-16T07:50:49;100610.38;;;24.93;70.21
59757;BME280;45631;51.962;5.974;2022-08-16T07:53:24;100609.25;;;25.16;69.46
59757;BME280;45631;51.962;5.974;2022-08-16T07:55:55;100606.19;;;25.32;68.70
59757;BME280;45631;51.962;5.974;2022-08-16T07:58:23;100611.59;;;25.45;67.23
59757;BME280;45631;51.962;5.974;2022-08-16T08:01:03;100606.25;;;25.59;67.55
59757;BME280;45631;51.962;5.974;2022-08-16T08:03:37;100613.31;;;25.73;66.66
59757;BME280;45631;51.962;5.974;2022-08-16T08:06:12;100608.97;;;25.79;66.89
59757;BME280;45631;51.962;5.974;2022-08-16T08:08:41;100628.63;;;25.86;66.75
59757;BME280;45631;51.962;5.974;2022-08-16T08:11:19;100628.03;;;25.97;65.46
59757;BME280;45631;51.962;5.974;2022-08-16T08:13:50;100625.75;;;25.94;64.51
59757;BME280;45631;51.962;5.974;2022-08-16T08:16:20;100626.19;;;26.18;65.77
59757;BME280;45631;51.962;5.974;2022-08-16T08:18:57;100622.44;;;26.26;64.61
59757;BME280;45631;51.962;5.974;2022-08-16T08:21:30;100634.06;;;26.40;63.85
59757;BME280;45631;51.962;5.974;2022-08-16T08:24:20;100631.34;;;26.40;63.76
59757;BME280;45631;51.962;5.974;2022-08-16T08:26:59;100627.78;;;26.59;61.36
59757;BME280;45631;51.962;5.974;2022-08-16T08:29:30;100635.03;;;26.72;61.04
59757;BME280;45631;51.962;5.974;2022-08-16T08:32:07;100643.75;;;26.61;60.68
59757;BME280;45631;51.962;5.974;2022-08-16T08:34:56;100644.56;;;26.68;60.06
59757;BME280;45631;51.962;5.974;2022-08-16T08:37:30;100639.38;;;26.73;61.10
59757;BME280;45631;51.962;5.974;2022-08-16T08:40:18;100646.19;;;26.89;59.03
59757;BME280;45631;51.962;5.974;2022-08-16T08:42:50;100645.06;;;27.10;58.86
59757;BME280;45631;51.962;5.974;2022-08-16T08:45:27;100638.09;;;27.35;57.21
59757;BME280;45631;51.962;5.974;2022-08-16T08:48:15;100636.38;;;27.47;56.11
59757;BME280;45631;51.962;5.974;2022-08-16T08:51:01;100639.78;;;27.67;54.90
59757;BME280;45631;51.962;5.974;2022-08-16T08:53:31;100632.84;;;27.78;52.85
59757;BME280;45631;51.962;5.974;2022-08-16T08:55:59;100633.03;;;27.83;53.21
59757;BME280;45631;51.962;5.974;2022-08-16T08:58:48;100631.78;;;28.11;52.90
59757;BME280;45631;51.962;5.974;2022-08-16T09:01:27;100628.53;;;28.03;51.66
59757;BME280;45631;51.962;5.974;2022-08-16T09:04:03;100639.75;;;28.06;51.89
59757;BME280;45631;51.962;5.974;2022-08-16T09:06:32;100642.66;;;28.30;51.42
59757;BME280;45631;51.962;5.974;2022-08-16T09:09:02;100646.38;;;28.10;51.95
59757;BME280;45631;51.962;5.974;2022-08-16T09:11:31;100645.63;;;28.22;50.19
59757;BME280;45631;51.962;5.974;2022-08-16T09:14:07;100640.44;;;28.20;50.52
59757;BME280;45631;51.962;5.974;2022-08-16T09:16:50;100645.00;;;28.45;50.48
59757;BME280;45631;51.962;5.974;2022-08-16T09:19:29;100647.88;;;28.69;49.40
59757;BME280;45631;51.962;5.974;2022-08-16T09:22:00;100647.09;;;28.87;50.63
59757;BME280;45631;51.962;5.974;2022-08-16T09:24:32;100648.28;;;28.91;48.16
59757;BME280;45631;51.962;5.974;2022-08-16T09:27:19;100644.94;;;29.26;48.03
59757;BME280;45631;51.962;5.974;2022-08-16T09:29:51;100644.41;;;29.36;48.01
59757;BME280;45631;51.962;5.974;2022-08-16T09:32:26;100642.13;;;29.63;47.68
59757;BME280;45631;51.962;5.974;2022-08-16T09:34:57;100645.13;;;29.43;47.54
59757;BME280;45631;51.962;5.974;2022-08-16T09:37:26;100647.13;;;29.78;48.68
59757;BME280;45631;51.962;5.974;2022-08-16T09:40:06;100628.19;;;30.01;47.45
59757;BME280;45631;51.962;5.974;2022-08-16T09:42:55;100639.41;;;30.29;47.36
59757;BME280;45631;51.962;5.974;2022-08-16T09:45:26;100633.13;;;30.40;45.20
59757;BME280;45631;51.962;5.974;2022-08-16T09:47:56;100638.78;;;30.74;44.37
59757;BME280;45631;51.962;5.974;2022-08-16T09:50:26;100640.44;;;30.75;45.86
59757;BME280;45631;51.962;5.974;2022-08-16T09:53:08;100635.16;;;30.57;44.55
59757;BME280;45631;51.962;5.974;2022-08-16T09:55:45;100641.97;;;30.83;44.19
59757;BME280;45631;51.962;5.974;2022-08-16T09:58:15;100645.94;;;30.92;44.17
59757;BME280;45631;51.962;5.974;2022-08-16T10:01:04;100645.16;;;31.21;43.13
59757;BME280;45631;51.962;5.974;2022-08-16T10:03:37;100647.06;;;31.49;43.78
59757;BME280;45631;51.962;5.974;2022-08-16T10:06:25;100650.81;;;31.31;44.68
59757;BME280;45631;51.962;5.974;2022-08-16T10:09:00;100642.75;;;31.65;44.15
59757;BME280;45631;51.962;5.974;2022-08-16T10:11:33;100641.13;;;31.52;42.33
59757;BME280;45631;51.962;5.974;2022-08-16T10:14:19;100645.41;;;31.48;42.71
59757;BME280;45631;51.962;5.974;2022-08-16T10:17:00;100645.22;;;31.66;42.31
59757;BME280;45631;51.962;5.974;2022-08-16T10:19:30;100645.56;;;31.87;42.83
59757;BME280;45631;51.962;5.974;2022-08-16T10:21:59;100653.78;;;31.92;42.95
59757;BME280;45631;51.962;5.974;2022-08-16T10:24:31;100642.44;;;32.12;41.41
59757;BME280;45631;51.962;5.974;2022-08-16T10:27:01;100644.50;;;32.22;42.17
59757;BME280;45631;51.962;5.974;2022-08-16T10:29:49;100648.19;;;31.82;40.30
59757;BME280;45631;51.962;5.974;2022-08-16T10:32:32;100644.47;;;32.39;41.30
59757;BME280;45631;51.962;5.974;2022-08-16T10:35:06;100652.00;;;32.71;39.77
59757;BME280;45631;51.962;5.974;2022-08-16T10:37:34;100651.44;;;33.18;38.43
59757;BME280;45631;51.962;5.974;2022-08-16T10:40:04;100652.22;;;33.36;38.52
59757;BME280;45631;51.962;5.974;2022-08-16T10:42:54;100671.19;;;33.26;37.12
59757;BME280;45631;51.962;5.974;2022-08-16T10:45:23;100666.19;;;33.23;37.28
59757;BME280;45631;51.962;5.974;2022-08-16T10:47:54;100658.03;;;33.23;36.21
59757;BME280;45631;51.962;5.974;2022-08-16T10:50:30;100666.47;;;33.43;37.08
59757;BME280;45631;51.962;5.974;2022-08-16T10:52:59;100657.16;;;33.17;36.26
59757;BME280;45631;51.962;5.974;2022-08-16T10:55:33;100666.03;;;33.07;36.44
59757;BME280;45631;51.962;5.974;2022-08-16T10:58:13;100663.19;;;33.19;36.51
59757;BME280;45631;51.962;5.974;2022-08-16T11:00:43;100665.53;;;33.60;35.48
59757;BME280;45631;51.962;5.974;2022-08-16T11:03:13;100661.91;;;33.81;36.31
59757;BME280;45631;51.962;5.974;2022-08-16T11:06:02;100661.03;;;33.76;35.60
59757;BME280;45631;51.962;5.974;2022-08-16T11:08:32;100669.47;;;34.07;34.90
59757;BME280;45631;51.962;5.974;2022-08-16T11:11:03;100661.44;;;34.27;35.01
59757;BME280;45631;51.962;5.974;2022-08-16T11:13:46;100672.97;;;33.69;33.85
59757;BME280;45631;51.962;5.974;2022-08-16T11:16:24;100668.91;;;33.99;33.71
59757;BME280;45631;51.962;5.974;2022-08-16T11:19:14;100666.97;;;34.00;33.96
59757;BME280;45631;51.962;5.974;2022-08-16T11:21:43;100668.78;;;34.22;34.47
59757;BME280;45631;51.962;5.974;2022-08-16T11:24:32;100666.81;;;34.54;34.75
59757;BME280;45631;51.962;5.974;2022-08-16T11:27:14;100674.69;;;34.46;34.03
59757;BME280;45631;51.962;5.974;2022-08-16T11:29:50;100670.19;;;34.29;33.01
59757;BME280;45631;51.962;5.974;2022-08-16T11:32:19;100671.81;;;34.25;33.59
59757;BME280;45631;51.962;5.974;2022-08-16T11:34:56;100672.16;;;34.34;34.42
59757;BME280;45631;51.962;5.974;2022-08-16T11:37:44;100675.34;;;34.63;33.93
59757;BME280;45631;51.962;5.974;2022-08-16T11:40:35;100674.66;;;34.94;34.02
59757;BME280;45631;51.962;5.974;2022-08-16T11:43:04;100678.47;;;34.93;32.88
59757;BME280;45631;51.962;5.974;2022-08-16T11:45:37;100685.47;;;35.42;33.07
59757;BME280;45631;51.962;5.974;2022-08-16T11:48:08;100690.72;;;35.79;33.02
59757;BME280;45631;51.962;5.974;2022-08-16T11:50:36;100695.59;;;35.51;31.80
59757;BME280;45631;51.962;5.974;2022-08-16T11:53:05;100692.25;;;35.29;30.58
59757;BME280;45631;51.962;5.974;2022-08-16T11:55:35;100686.84;;;35.54;31.79
59757;BME280;45631;51.962;5.974;2022-08-16T11:58:06;100696.47;;;36.14;30.82
59757;BME280;45631;51.962;5.974;2022-08-16T12:00:39;100693.97;;;36.28;30.31
59757;BME280;45631;51.962;5.974;2022-08-16T12:03:19;100700.81;;;36.25;31.11
59757;BME280;45631;51.962;5.974;2022-08-16T12:06:04;100698.06;;;36.56;31.54
59757;BME280;45631;51.962;5.974;2022-08-16T12:08:39;100701.09;;;36.39;31.49
59757;BME280;45631;51.962;5.974;2022-08-16T12:11:08;100695.63;;;35.77;30.33
59757;BME280;45631;51.962;5.974;2022-08-16T12:13:38;100703.59;;;35.94;31.10
59757;BME280;45631;51.962;5.974;2022-08-16T12:16:09;100697.00;;;35.64;31.50
59757;BME280;45631;51.962;5.974;2022-08-16T12:18:43;100700.00;;;35.78;33.01
59757;BME280;45631;51.962;5.974;2022-08-16T12:21:16;100695.31;;;35.43;31.46
59757;BME280;45631;51.962;5.974;2022-08-16T12:23:45;100701.47;;;35.07;31.36
59757;BME280;45631;51.962;5.974;2022-08-16T12:26:13;100708.59;;;34.60;33.34
59757;BME280;45631;51.962;5.974;2022-08-16T12:28:42;100713.16;;;34.49;32.37
59757;BME280;45631;51.962;5.974;2022-08-16T12:31:23;100705.91;;;34.28;33.25
59757;BME280;45631;51.962;5.974;2022-08-16T12:33:52;100710.56;;;33.95;33.53
59757;BME280;45631;51.962;5.974;2022-08-16T12:36:24;100719.44;;;33.80;33.76
59757;BME280;45631;51.962;5.974;2022-08-16T12:38:56;100711.28;;;33.30;35.03
59757;BME280;45631;51.962;5.974;2022-08-16T12:41:24;100711.88;;;33.15;36.01
59757;BME280;45631;51.962;5.974;2022-08-16T12:43:53;100716.59;;;33.20;36.02
59757;BME280;45631;51.962;5.974;2022-08-16T12:46:28;100714.63;;;33.38;35.62
59757;BME280;45631;51.962;5.974;2022-08-16T12:48:58;100719.50;;;33.13;36.34
59757;BME280;45631;51.962;5.974;2022-08-16T12:51:28;100722.63;;;32.83;36.51
59757;BME280;45631;51.962;5.974;2022-08-16T12:54:18;100723.09;;;32.41;37.63
59757;BME280;45631;51.962;5.974;2022-08-16T12:56:46;100724.69;;;32.19;38.16
59757;BME280;45631;51.962;5.974;2022-08-16T12:59:16;100719.06;;;32.60;38.41
59757;BME280;45631;51.962;5.974;2022-08-16T13:01:48;100711.50;;;32.84;38.25
59757;BME280;45631;51.962;5.974;2022-08-16T13:04:25;100713.34;;;32.62;38.17
59757;BME280;45631;51.962;5.974;2022-08-16T13:06:59;100717.72;;;33.02;38.99
59757;BME280;45631;51.962;5.974;2022-08-16T13:09:29;100713.69;;;33.27;37.29
59757;BME280;45631;51.962;5.974;2022-08-16T13:12:10;100714.41;;;33.22;37.84
59757;BME280;45631;51.962;5.974;2022-08-16T13:14:46;100705.91;;;33.63;36.24
59757;BME280;45631;51.962;5.974;2022-08-16T13:17:20;100711.09;;;33.64;35.39
59757;BME280;45631;51.962;5.974;2022-08-16T13:19:53;100713.47;;;33.56;36.31
59757;BME280;45631;51.962;5.974;2022-08-16T13:22:34;100720.44;;;34.01;34.93
59757;BME280;45631;51.962;5.974;2022-08-16T13:25:05;100726.63;;;33.91;35.04
59757;BME280;45631;51.962;5.974;2022-08-16T13:27:35;100716.75;;;34.50;35.43